createdAt,value
2019-02-12T00:01:01.249Z,2.30
2019-02-12T00:05:05.862Z,2.70
2019-02-12T00:09:11.040Z,2.17
2019-02-12T00:13:15.223Z,2.17
2019-02-12T00:17:19.636Z,1.80
2019-02-12T00:21:23.835Z,2.53
2019-02-12T00:25:28.223Z,2.43
2019-02-12T00:29:32.658Z,2.03
2019-02-12T00:33:37.013Z,1.90
2019-02-12T00:37:41.410Z,2.30
2019-02-12T00:41:45.756Z,2.07
2019-02-12T00:45:50.165Z,2.77
2019-02-12T00:49:54.545Z,2.60
2019-02-12T00:53:58.822Z,1.70
2019-02-12T00:58:03.167Z,2.90
2019-02-12T01:02:07.537Z,2.53
2019-02-12T01:06:12.001Z,2.80
2019-02-12T01:10:16.355Z,2.53
2019-02-12T01:14:20.653Z,2.10
2019-02-12T01:18:24.947Z,2.57
2019-02-12T01:22:29.116Z,3.00
2019-02-12T01:26:33.352Z,2.27
2019-02-12T01:30:37.539Z,1.90
2019-02-12T01:34:41.810Z,2.43
2019-02-12T01:38:46.025Z,1.90
2019-02-12T01:42:50.157Z,2.77
2019-02-12T01:46:54.358Z,2.30
2019-02-12T01:50:58.953Z,2.27
2019-02-12T01:55:03.128Z,2.63
2019-02-12T01:59:07.317Z,1.93
2019-02-12T02:03:11.538Z,2.70
2019-02-12T02:07:15.863Z,2.17
2019-02-12T02:11:20.062Z,2.47
2019-02-12T02:15:24.302Z,2.53
2019-02-12T02:19:28.567Z,2.80
2019-02-12T02:23:32.890Z,2.43
2019-02-12T02:27:37.301Z,2.30
2019-02-12T02:31:41.679Z,1.97
2019-02-12T02:35:45.945Z,2.30
2019-02-12T02:39:50.303Z,2.43
2019-02-12T02:43:54.632Z,2.70
2019-02-12T02:47:59.010Z,2.60
2019-02-12T02:52:03.428Z,2.27
2019-02-12T02:56:07.928Z,3.13
2019-02-12T03:00:12.329Z,2.53
2019-02-12T03:04:16.809Z,2.10
2019-02-12T03:08:21.143Z,2.10
2019-02-12T03:12:25.555Z,2.10
2019-02-12T03:16:29.790Z,2.13
2019-02-12T03:20:34.000Z,2.47
2019-02-12T03:24:38.353Z,2.47
2019-02-12T03:28:42.542Z,2.33
2019-02-12T03:32:46.744Z,1.97
2019-02-12T03:36:50.970Z,1.40
2019-02-12T03:40:55.155Z,2.00
2019-02-12T03:44:59.413Z,2.20
2019-02-12T03:49:03.692Z,1.90
2019-02-12T03:53:07.882Z,2.47
2019-02-12T03:57:12.003Z,2.10
2019-02-12T04:01:16.200Z,2.13
2019-02-12T04:05:20.438Z,2.40
2019-02-12T04:09:24.622Z,2.03
2019-02-12T04:13:28.838Z,2.23
2019-02-12T04:17:33.097Z,2.10
2019-02-12T04:21:37.485Z,1.60
2019-02-12T04:25:41.832Z,2.13
2019-02-12T04:29:46.526Z,1.87
2019-02-12T04:33:50.914Z,2.37
2019-02-12T04:37:55.678Z,2.03
2019-02-12T04:42:00.044Z,2.30
2019-02-12T04:46:04.407Z,2.00
2019-02-12T04:50:09.781Z,1.90
2019-02-12T04:54:15.915Z,1.93
2019-02-12T04:58:20.086Z,1.70
2019-02-12T05:02:24.320Z,2.70
2019-02-12T05:06:28.516Z,1.50
2019-02-12T05:10:35.007Z,2.10
2019-02-12T05:14:39.312Z,1.77
2019-02-12T05:18:43.508Z,2.20
2019-02-12T05:22:47.770Z,2.13
2019-02-12T05:26:52.020Z,2.33
2019-02-12T05:30:56.309Z,2.00
2019-02-12T05:35:00.414Z,2.00
2019-02-12T05:39:05.183Z,1.90
2019-02-12T05:43:09.389Z,2.53
2019-02-12T05:47:13.627Z,1.80
2019-02-12T05:51:17.825Z,2.00
2019-02-12T05:55:22.353Z,1.97
2019-02-12T05:59:26.814Z,2.13
2019-02-12T06:03:31.110Z,2.07
2019-02-12T06:07:35.363Z,1.63
2019-02-12T06:11:39.648Z,1.73
2019-02-12T06:15:44.009Z,1.97
2019-02-12T06:19:48.402Z,1.83
2019-02-12T06:23:52.779Z,1.87
2019-02-12T06:27:57.186Z,2.17
2019-02-12T06:32:01.904Z,2.67
2019-02-12T06:36:06.358Z,1.97
2019-02-12T06:40:10.784Z,1.60
2019-02-12T06:44:15.177Z,2.73
2019-02-12T06:48:19.780Z,2.33
2019-02-12T06:52:24.272Z,2.23
2019-02-12T06:56:28.768Z,1.80
2019-02-12T07:00:33.373Z,2.20
2019-02-12T07:04:37.743Z,2.13
2019-02-12T07:09:10.325Z,1.93
2019-02-12T07:13:29.088Z,2.27
2019-02-12T07:18:08.903Z,2.57
2019-02-12T07:22:47.042Z,2.37
2019-02-12T07:27:17.666Z,2.37
2019-02-12T07:32:12.034Z,1.97
2019-02-12T07:37:09.200Z,2.50
2019-02-12T07:41:38.493Z,2.13
2019-02-12T07:46:22.761Z,2.30
2019-02-12T07:50:49.078Z,2.07
2019-02-12T07:55:30.019Z,1.93
2019-02-12T08:00:24.749Z,2.20
2019-02-12T08:05:06.771Z,2.10
2019-02-12T08:09:47.755Z,2.50
2019-02-12T08:14:23.517Z,2.37
2019-02-12T08:18:47.972Z,2.37
2019-02-12T08:23:51.009Z,2.13
2019-02-12T08:28:39.108Z,2.33
2019-02-12T08:33:07.492Z,2.20
2019-02-12T08:37:38.911Z,2.33
2019-02-12T08:42:08.506Z,2.50
2019-02-12T08:46:28.798Z,2.43
2019-02-12T08:50:47.035Z,2.17
2019-02-12T08:55:11.986Z,2.30
2019-02-12T08:59:47.295Z,1.80
2019-02-12T09:04:29.312Z,2.87
2019-02-12T09:09:05.539Z,2.73
2019-02-12T09:13:43.001Z,2.20
2019-02-12T09:18:02.000Z,2.37
2019-02-12T09:22:33.021Z,2.00
2019-02-12T09:27:26.161Z,2.40
2019-02-12T09:32:13.070Z,2.50
2019-02-12T09:37:07.349Z,2.87
2019-02-12T09:41:41.473Z,2.47
2019-02-12T09:46:16.164Z,2.63
2019-02-12T09:50:49.866Z,2.53
2019-02-12T09:55:29.451Z,2.30
2019-02-12T10:00:24.208Z,2.80
2019-02-12T10:05:04.883Z,1.97
2019-02-12T10:09:31.950Z,2.00
2019-02-12T10:14:05.836Z,2.33
2019-02-12T10:19:04.126Z,1.77
2019-02-12T10:23:51.050Z,1.93
2019-02-12T10:28:50.631Z,2.20
2019-02-12T10:32:54.951Z,1.83
2019-02-12T10:37:02.055Z,2.07
2019-02-12T10:41:06.594Z,2.50
2019-02-12T10:45:11.319Z,2.93
2019-02-12T10:49:15.631Z,2.57
2019-02-12T10:53:20.034Z,2.83
2019-02-12T10:57:24.349Z,2.67
2019-02-12T11:01:28.662Z,2.37
2019-02-12T11:05:32.949Z,2.40
2019-02-12T11:09:37.651Z,2.67
2019-02-12T11:13:41.977Z,2.97
2019-02-12T11:17:47.451Z,2.60
2019-02-12T11:21:51.494Z,2.60
2019-02-12T11:25:55.729Z,2.60
2019-02-12T11:30:00.071Z,3.00
2019-02-12T11:34:04.452Z,2.80
2019-02-12T11:38:09.530Z,2.60
2019-02-12T11:42:13.865Z,2.77
2019-02-12T11:46:18.148Z,2.60
2019-02-12T11:50:22.389Z,2.90
2019-02-12T11:54:26.653Z,3.07
2019-02-12T11:58:30.934Z,3.53
2019-02-12T12:02:41.810Z,4.20
2019-02-12T12:06:41.154Z,2.50
2019-02-12T12:10:45.393Z,3.07
2019-02-12T12:14:49.629Z,2.47
2019-02-12T12:18:54.183Z,2.77
2019-02-12T12:23:00.844Z,3.13
2019-02-12T12:27:07.013Z,2.40
2019-02-12T12:31:11.384Z,2.77
2019-02-12T12:35:15.914Z,2.30
2019-02-12T12:39:20.531Z,2.10
2019-02-12T12:43:25.335Z,2.97
2019-02-12T12:47:29.962Z,2.57
2019-02-12T12:51:53.336Z,3.03
2019-02-12T12:55:57.661Z,3.07
2019-02-12T13:00:03.828Z,2.77
2019-02-12T13:04:08.247Z,2.37
2019-02-12T13:08:12.557Z,2.23
2019-02-12T13:12:16.763Z,2.37
2019-02-12T13:16:21.034Z,2.67
2019-02-12T13:20:25.350Z,2.70
2019-02-12T13:24:29.911Z,3.03
2019-02-12T13:28:34.247Z,3.23
2019-02-12T13:32:38.571Z,3.07
2019-02-12T13:36:42.988Z,2.70
2019-02-12T13:40:47.728Z,2.90
2019-02-12T13:44:52.260Z,3.13
2019-02-12T13:48:56.845Z,2.93
2019-02-12T13:53:01.590Z,3.00
2019-02-12T13:57:06.000Z,2.90
2019-02-12T14:01:10.363Z,2.83
2019-02-12T14:05:16.311Z,3.57
2019-02-12T14:09:20.815Z,3.63
2019-02-12T14:13:25.460Z,3.10
2019-02-12T14:17:29.965Z,3.30
2019-02-12T14:21:35.441Z,3.40
2019-02-12T14:25:39.771Z,3.03
2019-02-12T14:29:44.131Z,4.07
2019-02-12T14:33:48.625Z,3.63
2019-02-12T14:37:53.045Z,4.13
2019-02-12T14:41:57.440Z,3.63
2019-02-12T14:46:03.399Z,3.97
2019-02-12T14:50:09.144Z,3.93
2019-02-12T14:54:13.516Z,4.77
2019-02-12T14:58:17.839Z,4.17
2019-02-12T15:02:22.267Z,3.90
2019-02-12T15:06:26.523Z,4.30
2019-02-12T15:10:30.811Z,4.13
2019-02-12T15:14:35.114Z,3.73
2019-02-12T15:18:39.426Z,4.20
2019-02-12T15:22:43.619Z,4.20
2019-02-12T15:26:48.016Z,5.20
2019-02-12T15:30:52.394Z,5.07
2019-02-12T15:34:56.751Z,6.43
2019-02-12T15:39:01.338Z,5.90
2019-02-12T15:43:05.540Z,6.63
2019-02-12T15:47:09.823Z,6.87
2019-02-12T15:51:14.101Z,7.67
2019-02-12T15:55:18.391Z,7.50
2019-02-12T15:59:22.794Z,7.70
2019-02-12T16:03:26.958Z,7.30
2019-02-12T16:07:31.180Z,8.00
2019-02-12T16:11:35.438Z,7.10
2019-02-12T16:15:39.702Z,7.83
2019-02-12T16:19:45.200Z,7.43
2019-02-12T16:23:49.838Z,8.27
2019-02-12T16:27:54.175Z,8.80
2019-02-12T16:31:58.419Z,8.27
2019-02-12T16:36:02.631Z,9.50
2019-02-12T16:40:07.935Z,9.33
2019-02-12T16:44:12.291Z,9.93
2019-02-12T16:48:16.527Z,10.50
2019-02-12T16:52:21.242Z,10.33
2019-02-12T16:56:25.696Z,9.97
2019-02-12T17:00:30.067Z,9.63
2019-02-12T17:04:34.278Z,11.40
2019-02-12T17:08:38.563Z,10.60
2019-02-12T17:12:42.875Z,11.77
2019-02-12T17:16:47.360Z,12.73
2019-02-12T17:20:51.714Z,12.47
2019-02-12T17:24:56.141Z,13.03
2019-02-12T17:29:00.735Z,13.27
2019-02-12T17:33:05.143Z,12.13
2019-02-12T17:37:09.540Z,15.07
2019-02-12T17:41:14.493Z,15.00
2019-02-12T17:45:19.269Z,14.93
2019-02-12T17:49:23.889Z,14.63
2019-02-12T17:53:29.252Z,14.60
2019-02-12T17:57:33.563Z,14.33
2019-02-12T18:01:37.892Z,14.80
2019-02-12T18:05:42.298Z,14.87
2019-02-12T18:09:46.467Z,14.57
2019-02-12T18:13:50.899Z,14.07
2019-02-12T18:17:55.184Z,14.57
2019-02-12T18:21:59.532Z,14.13
2019-02-12T18:26:04.054Z,14.67
2019-02-12T18:30:10.704Z,13.73
2019-02-12T18:34:15.391Z,15.13
2019-02-12T18:38:22.005Z,14.63
2019-02-12T18:42:26.730Z,14.23
2019-02-12T18:46:31.452Z,15.13
2019-02-12T18:50:36.883Z,14.60
2019-02-12T18:54:41.735Z,14.70
2019-02-12T18:58:46.714Z,14.70
2019-02-12T19:02:51.582Z,15.23
2019-02-12T19:06:56.314Z,15.07
2019-02-12T19:11:00.803Z,14.73
2019-02-12T19:15:06.419Z,14.57
2019-02-12T19:19:11.065Z,15.20
2019-02-12T19:23:15.640Z,14.77
2019-02-12T19:27:22.167Z,14.60
2019-02-12T19:31:36.189Z,15.63
2019-02-12T19:35:40.863Z,15.53
2019-02-12T19:39:45.356Z,14.90
2019-02-12T19:43:54.904Z,16.30
2019-02-12T19:47:59.284Z,17.10
2019-02-12T19:52:03.769Z,16.43
2019-02-12T19:56:08.292Z,16.10
2019-02-12T20:00:19.495Z,16.07
2019-02-12T20:04:24.050Z,15.83
2019-02-12T20:08:28.590Z,17.27
2019-02-12T20:12:33.497Z,16.43
2019-02-12T20:16:38.162Z,17.37
2019-02-12T20:20:42.657Z,18.77
2019-02-12T20:24:47.065Z,18.90
2019-02-12T20:28:51.531Z,18.93
2019-02-12T20:32:55.982Z,18.13
2019-02-12T20:37:00.505Z,18.90
2019-02-12T20:41:04.939Z,17.60
2019-02-12T20:45:11.653Z,17.87
2019-02-12T20:49:16.152Z,18.10
2019-02-12T20:53:20.666Z,21.20
2019-02-12T20:57:25.243Z,18.73
2019-02-12T21:01:29.844Z,18.23
2019-02-12T21:05:34.454Z,18.90
2019-02-12T21:09:39.044Z,18.47
2019-02-12T21:13:43.587Z,19.10
2019-02-12T21:17:48.041Z,18.57
2019-02-12T21:21:52.588Z,18.43
2019-02-12T21:25:58.908Z,18.57
2019-02-12T21:30:03.451Z,18.93
2019-02-12T21:34:08.706Z,18.03
2019-02-12T21:38:17.188Z,18.10
2019-02-12T21:42:21.686Z,18.60
2019-02-12T21:46:26.629Z,18.93
2019-02-12T21:50:31.664Z,18.73
2019-02-12T21:54:36.246Z,19.43
2019-02-12T21:58:41.596Z,19.27
2019-02-12T22:02:47.343Z,20.47
2019-02-12T22:06:55.081Z,20.73
2019-02-12T22:10:59.762Z,20.60
2019-02-12T22:15:04.703Z,19.60
2019-02-12T22:19:09.627Z,20.13
2019-02-12T22:23:14.355Z,19.97
2019-02-12T22:27:18.995Z,20.07
2019-02-12T22:31:23.600Z,21.33
2019-02-12T22:35:28.075Z,21.10
2019-02-12T22:39:32.561Z,20.97
2019-02-12T22:43:37.237Z,21.57
2019-02-12T22:47:41.789Z,21.40
2019-02-12T22:51:46.187Z,22.00
2019-02-12T22:55:50.600Z,22.20
2019-02-12T22:59:54.883Z,20.97
2019-02-12T23:03:59.232Z,22.00
2019-02-12T23:08:03.542Z,22.43
2019-02-12T23:12:11.414Z,21.27
2019-02-12T23:16:15.715Z,22.50
2019-02-12T23:20:20.097Z,21.80
2019-02-12T23:24:24.489Z,20.70
2019-02-12T23:28:28.717Z,21.97
2019-02-12T23:32:32.867Z,21.00
2019-02-12T23:36:37.247Z,21.60
2019-02-12T23:40:41.412Z,21.60
2019-02-12T23:44:45.626Z,21.60
2019-02-12T23:48:49.851Z,22.93
2019-02-12T23:52:54.132Z,23.83
2019-02-12T23:56:58.342Z,22.33
